This is the latest recevied weather packets stored in our database for station/object KC4GS-13. If no packets are shown the sender has not sent any weather packets the latest 10 day(s).
| Time | Temp. | Humidity | Pressure | Rain* | Wind** | Luminosity | Snow |
|---|---|---|---|---|---|---|---|
| 1777755095 | 17.78° C | 78% | 1012.5 hPa | 0 mm | - | 115 W/m² | - |
| 1777754792 | 18.89° C | 77% | 1012.5 hPa | 0 mm | - | 149 W/m² | - |
| 1777754490 | 18.89° C | 77% | 1012.7 hPa | 0 mm | - | 541 W/m² | - |
| 1777754187 | 18.89° C | 76% | 1012.7 hPa | 0 mm | - | 578 W/m² | - |
| 1777753885 | 18.89° C | 77% | 1012.6 hPa | 0 mm | - | 578 W/m² | - |
| 1777753579 | 19.44° C | 76% | 1012.4 hPa | 0 mm | - | 545 W/m² | - |
| 1777753278 | 18.89° C | 77% | 1012.5 hPa | 0 mm | - | 638 W/m² | - |
| 1777752974 | 18.89° C | 78% | 1012.5 hPa | 0 mm | - | 659 W/m² | - |
| 1777752671 | 18.33° C | 78% | 1012.5 hPa | 0 mm | - | 602 W/m² | - |
| 1777752366 | 18.89° C | 79% | 1012.8 hPa | 0 mm | - | 601 W/m² | - |
| 1777752063 | 18.33° C | 79% | 1012.7 hPa | 0 mm | - | 622 W/m² | - |
| 1777751761 | 17.78° C | 81% | 1012.9 hPa | 0 mm | - | 655 W/m² | - |
| 1777751457 | 17.78° C | 81% | 1012.5 hPa | 0 mm | - | 551 W/m² | - |
| 1777751148 | 17.78° C | 82% | 1012.6 hPa | 0 mm | - | 386 W/m² | - |
| 1777750845 | 17.22° C | 83% | 1012.8 hPa | 0 mm | - | 278 W/m² | - |
| 1777750542 | 17.22° C | 83% | 1012.8 hPa | 0 mm | - | 358 W/m² | - |
| 1777750238 | 17.22° C | 83% | 1012.7 hPa | 0 mm | - | 262 W/m² | - |
| 1777749934 | 17.78° C | 82% | 1012.7 hPa | 0 mm | - | 106 W/m² | - |
| 1777749632 | 18.89° C | 79% | 1012.8 hPa | 0 mm | - | 148 W/m² | - |
| 1777749329 | 18.89° C | 79% | 1012.4 hPa | 0 mm | - | 283 W/m² | - |
| 1777749027 | 18.89° C | 80% | 1012.8 hPa | 0 mm | - | 354 W/m² | - |
| 1777748723 | 18.33° C | 83% | 1012.8 hPa | 0 mm | - | 416 W/m² | - |
| 1777748415 | 17.78° C | 88% | 1012.8 hPa | 0 mm | - | 328 W/m² | - |
| 1777748110 | 17.78° C | 92% | 1012.6 hPa | 0 mm | - | 242 W/m² | - |
| 1777747806 | 17.22° C | 94% | 1012.7 hPa | 0 mm | - | 772 W/m² | - |
* Rain latest hour (hover to see other rain measurements)
** Current wind speed in m/s (hover to see current wind gust speed)